sensor_id;sensor_type;location;lat;lon;timestamp;pressure;altitude;pressure_sealevel;temperature;humidity
12358;BME280;6243;51.244;6.774;2023-01-25T00:01:35;148873.59;;;5.60;100.00
12358;BME280;6243;51.244;6.774;2023-01-25T00:04:02;148886.25;;;5.65;100.00
12358;BME280;6243;51.244;6.774;2023-01-25T00:06:27;148868.53;;;5.58;100.00
12358;BME280;6243;51.244;6.774;2023-01-25T00:08:53;148922.94;;;5.80;100.00
12358;BME280;6243;51.244;6.774;2023-01-25T00:11:21;148934.38;;;5.84;100.00
12358;BME280;6243;51.244;6.774;2023-01-25T00:13:46;148921.72;;;5.79;100.00
12358;BME280;6243;51.244;6.774;2023-01-25T00:16:12;148929.28;;;5.82;100.00
12358;BME280;6243;51.244;6.774;2023-01-25T00:18:37;148929.28;;;5.82;100.00
12358;BME280;6243;51.244;6.774;2023-01-25T00:21:12;148901.44;;;5.71;100.00
12358;BME280;6243;51.244;6.774;2023-01-25T00:23:38;148928.03;;;5.82;100.00
12358;BME280;6243;51.244;6.774;2023-01-25T00:26:03;148871.09;;;5.59;100.00
12358;BME280;6243;51.244;6.774;2023-01-25T00:28:29;148950.88;;;5.91;100.00
12358;BME280;6243;51.244;6.774;2023-01-25T00:30:58;148992.63;;;6.07;100.00
12358;BME280;6243;51.244;6.774;2023-01-25T00:33:33;149049.59;;;6.30;100.00
12358;BME280;6243;51.244;6.774;2023-01-25T00:36:27;149012.91;;;6.15;100.00
12358;BME280;6243;51.244;6.774;2023-01-25T00:38:56;149030.63;;;6.22;100.00
12358;BME280;6243;51.244;6.774;2023-01-25T00:41:22;148971.09;;;5.99;100.00
12358;BME280;6243;51.244;6.774;2023-01-25T00:43:47;148924.22;;;5.80;100.00
12358;BME280;6243;51.244;6.774;2023-01-25T00:46:14;148853.38;;;5.52;100.00
12358;BME280;6243;51.244;6.774;2023-01-25T00:48:40;148864.75;;;5.56;100.00
12358;BME280;6243;51.244;6.774;2023-01-25T00:51:05;148872.31;;;5.59;100.00
12358;BME280;6243;51.244;6.774;2023-01-25T00:53:33;148877.38;;;5.61;100.00
12358;BME280;6243;51.244;6.774;2023-01-25T00:55:58;148865.97;;;5.57;100.00
12358;BME280;6243;51.244;6.774;2023-01-25T00:58:24;148910.31;;;5.74;100.00
12358;BME280;6243;51.244;6.774;2023-01-25T01:00:51;148860.94;;;5.55;100.00
12358;BME280;6243;51.244;6.774;2023-01-25T01:03:17;148859.69;;;5.54;100.00
12358;BME280;6243;51.244;6.774;2023-01-25T01:05:43;148852.09;;;5.51;100.00
12358;BME280;6243;51.244;6.774;2023-01-25T01:08:08;148892.59;;;5.67;100.00
12358;BME280;6243;51.244;6.774;2023-01-25T01:10:36;148883.72;;;5.64;100.00
12358;BME280;6243;51.244;6.774;2023-01-25T01:13:01;148855.88;;;5.53;100.00
12358;BME280;6243;51.244;6.774;2023-01-25T01:15:27;148896.38;;;5.69;100.00
12358;BME280;6243;51.244;6.774;2023-01-25T01:17:52;148953.38;;;5.92;100.00
12358;BME280;6243;51.244;6.774;2023-01-25T01:20:18;148954.66;;;5.92;100.00
12358;BME280;6243;51.244;6.774;2023-01-25T01:22:43;148901.44;;;5.71;100.00
12358;BME280;6243;51.244;6.774;2023-01-25T01:25:09;148910.31;;;5.74;100.00
12358;BME280;6243;51.244;6.774;2023-01-25T01:27:36;148940.72;;;5.87;100.00
12358;BME280;6243;51.244;6.774;2023-01-25T01:30:02;148948.31;;;5.90;100.00
12358;BME280;6243;51.244;6.774;2023-01-25T01:32:27;148926.75;;;5.81;100.00
12358;BME280;6243;51.244;6.774;2023-01-25T01:34:53;148935.66;;;5.85;100.00
12358;BME280;6243;51.244;6.774;2023-01-25T01:37:19;148921.72;;;5.79;100.00
12358;BME280;6243;51.244;6.774;2023-01-25T01:39:44;148921.72;;;5.79;100.00
12358;BME280;6243;51.244;6.774;2023-01-25T01:42:10;148944.53;;;5.88;100.00
12358;BME280;6243;51.244;6.774;2023-01-25T01:44:45;148943.25;;;5.88;100.00
12358;BME280;6243;51.244;6.774;2023-01-25T01:47:16;148907.75;;;5.73;100.00
12358;BME280;6243;51.244;6.774;2023-01-25T01:49:46;148863.47;;;5.56;100.00
12358;BME280;6243;51.244;6.774;2023-01-25T01:52:16;148855.88;;;5.53;100.00
12358;BME280;6243;51.244;6.774;2023-01-25T01:54:46;148878.66;;;5.62;100.00
12358;BME280;6243;51.244;6.774;2023-01-25T01:57:16;148891.31;;;5.67;100.00
12358;BME280;6243;51.244;6.774;2023-01-25T01:59:49;148886.25;;;5.65;100.00
12358;BME280;6243;51.244;6.774;2023-01-25T02:02:16;148883.72;;;5.64;100.00
12358;BME280;6243;51.244;6.774;2023-01-25T02:04:43;148836.88;;;5.45;100.00
12358;BME280;6243;51.244;6.774;2023-01-25T02:07:15;148898.94;;;5.70;100.00
12358;BME280;6243;51.244;6.774;2023-01-25T02:09:42;148902.72;;;5.71;100.00
12358;BME280;6243;51.244;6.774;2023-01-25T02:12:09;148892.59;;;5.67;100.00
12358;BME280;6243;51.244;6.774;2023-01-25T02:14:36;148934.38;;;5.84;100.00
12358;BME280;6243;51.244;6.774;2023-01-25T02:17:09;148934.38;;;5.84;100.00
12358;BME280;6243;51.244;6.774;2023-01-25T02:19:42;148921.72;;;5.79;100.00
12358;BME280;6243;51.244;6.774;2023-01-25T02:22:13;148896.38;;;5.69;100.00
12358;BME280;6243;51.244;6.774;2023-01-25T02:24:43;148878.66;;;5.62;100.00
12358;BME280;6243;51.244;6.774;2023-01-25T02:27:13;148865.97;;;5.57;100.00
12358;BME280;6243;51.244;6.774;2023-01-25T02:29:38;148881.19;;;5.63;100.00
12358;BME280;6243;51.244;6.774;2023-01-25T02:32:05;148878.66;;;5.62;100.00
12358;BME280;6243;51.244;6.774;2023-01-25T02:34:31;148886.25;;;5.65;100.00
12358;BME280;6243;51.244;6.774;2023-01-25T02:36:57;148879.94;;;5.62;100.00
12358;BME280;6243;51.244;6.774;2023-01-25T02:39:24;148876.16;;;5.61;100.00
12358;BME280;6243;51.244;6.774;2023-01-25T02:41:51;148841.97;;;5.47;100.00
12358;BME280;6243;51.244;6.774;2023-01-25T02:44:20;148916.66;;;5.77;100.00
12358;BME280;6243;51.244;6.774;2023-01-25T02:46:47;148910.31;;;5.74;100.00
12358;BME280;6243;51.244;6.774;2023-01-25T02:49:14;148909.03;;;5.74;100.00
12358;BME280;6243;51.244;6.774;2023-01-25T02:51:42;148871.09;;;5.59;100.00
12358;BME280;6243;51.244;6.774;2023-01-25T02:54:09;148858.44;;;5.54;100.00
12358;BME280;6243;51.244;6.774;2023-01-25T02:56:35;148905.25;;;5.72;100.00
12358;BME280;6243;51.244;6.774;2023-01-25T02:59:01;148948.31;;;5.90;100.00
12358;BME280;6243;51.244;6.774;2023-01-25T03:01:28;148890.03;;;5.66;100.00
12358;BME280;6243;51.244;6.774;2023-01-25T03:03:54;148895.09;;;5.68;100.00
12358;BME280;6243;51.244;6.774;2023-01-25T03:06:19;148841.97;;;5.47;100.00
12358;BME280;6243;51.244;6.774;2023-01-25T03:08:45;148833.09;;;5.44;100.00
12358;BME280;6243;51.244;6.774;2023-01-25T03:11:10;148839.44;;;5.46;100.00
12358;BME280;6243;51.244;6.774;2023-01-25T03:13:37;148871.09;;;5.59;100.00
12358;BME280;6243;51.244;6.774;2023-01-25T03:16:04;148921.72;;;5.79;100.00
12358;BME280;6243;51.244;6.774;2023-01-25T03:18:33;148952.09;;;5.91;100.00
12358;BME280;6243;51.244;6.774;2023-01-25T03:21:04;148928.03;;;5.82;100.00
12358;BME280;6243;51.244;6.774;2023-01-25T03:23:30;148925.50;;;5.81;100.00
12358;BME280;6243;51.244;6.774;2023-01-25T03:26:03;148865.97;;;5.57;100.00
12358;BME280;6243;51.244;6.774;2023-01-25T03:28:29;148873.59;;;5.60;100.00
12358;BME280;6243;51.244;6.774;2023-01-25T03:30:55;148825.50;;;5.41;100.00
12358;BME280;6243;51.244;6.774;2023-01-25T03:33:20;148788.81;;;5.26;100.00
12358;BME280;6243;51.244;6.774;2023-01-25T03:35:50;148801.50;;;5.31;100.00
12358;BME280;6243;51.244;6.774;2023-01-25T03:38:16;148883.72;;;5.64;100.00
12358;BME280;6243;51.244;6.774;2023-01-25T03:40:42;148843.22;;;5.48;100.00
12358;BME280;6243;51.244;6.774;2023-01-25T03:43:07;148858.44;;;5.54;100.00
12358;BME280;6243;51.244;6.774;2023-01-25T03:45:33;148855.88;;;5.53;100.00
12358;BME280;6243;51.244;6.774;2023-01-25T03:47:58;148858.44;;;5.54;100.00
12358;BME280;6243;51.244;6.774;2023-01-25T03:50:24;148852.09;;;5.51;100.00
12358;BME280;6243;51.244;6.774;2023-01-25T03:52:51;148819.22;;;5.38;100.00
12358;BME280;6243;51.244;6.774;2023-01-25T03:55:17;148831.81;;;5.43;100.00
12358;BME280;6243;51.244;6.774;2023-01-25T03:57:42;148826.75;;;5.41;100.00
12358;BME280;6243;51.244;6.774;2023-01-25T04:00:09;148771.09;;;5.19;100.00
12358;BME280;6243;51.244;6.774;2023-01-25T04:02:35;148768.56;;;5.18;100.00
12358;BME280;6243;51.244;6.774;2023-01-25T04:05:00;148812.88;;;5.36;100.00
12358;BME280;6243;51.244;6.774;2023-01-25T04:07:26;148825.50;;;5.41;100.00
12358;BME280;6243;51.244;6.774;2023-01-25T04:09:53;148836.88;;;5.45;100.00
12358;BME280;6243;51.244;6.774;2023-01-25T04:12:19;148872.31;;;5.59;100.00
12358;BME280;6243;51.244;6.774;2023-01-25T04:14:44;148848.25;;;5.50;100.00
12358;BME280;6243;51.244;6.774;2023-01-25T04:17:10;148872.31;;;5.59;100.00
12358;BME280;6243;51.244;6.774;2023-01-25T04:19:35;148867.25;;;5.57;100.00
12358;BME280;6243;51.244;6.774;2023-01-25T04:22:01;148874.88;;;5.60;100.00
12358;BME280;6243;51.244;6.774;2023-01-25T04:24:26;148883.72;;;5.64;100.00
12358;BME280;6243;51.244;6.774;2023-01-25T04:26:53;148857.16;;;5.53;100.00
12358;BME280;6243;51.244;6.774;2023-01-25T04:29:19;148811.59;;;5.35;100.00
12358;BME280;6243;51.244;6.774;2023-01-25T04:31:45;148822.97;;;5.40;100.00
12358;BME280;6243;51.244;6.774;2023-01-25T04:34:10;148826.75;;;5.41;100.00
12358;BME280;6243;51.244;6.774;2023-01-25T04:36:36;148802.72;;;5.32;100.00
12358;BME280;6243;51.244;6.774;2023-01-25T04:39:02;148834.38;;;5.44;100.00
12358;BME280;6243;51.244;6.774;2023-01-25T04:41:27;148810.31;;;5.35;100.00
12358;BME280;6243;51.244;6.774;2023-01-25T04:43:54;148812.88;;;5.36;100.00
12358;BME280;6243;51.244;6.774;2023-01-25T04:46:19;148802.72;;;5.32;100.00
12358;BME280;6243;51.244;6.774;2023-01-25T04:48:45;148815.38;;;5.37;100.00
12358;BME280;6243;51.244;6.774;2023-01-25T04:51:11;148814.09;;;5.36;100.00
12358;BME280;6243;51.244;6.774;2023-01-25T04:53:36;148817.94;;;5.38;100.00
12358;BME280;6243;51.244;6.774;2023-01-25T04:56:02;148699.03;;;4.90;100.00
12358;BME280;6243;51.244;6.774;2023-01-25T04:58:28;148779.94;;;5.23;100.00
12358;BME280;6243;51.244;6.774;2023-01-25T05:00:59;148769.84;;;5.19;100.00
12358;BME280;6243;51.244;6.774;2023-01-25T05:03:24;148768.56;;;5.18;100.00
12358;BME280;6243;51.244;6.774;2023-01-25T05:05:50;148785.06;;;5.25;100.00
12358;BME280;6243;51.244;6.774;2023-01-25T05:08:15;148785.06;;;5.25;100.00
12358;BME280;6243;51.244;6.774;2023-01-25T05:10:41;148773.66;;;5.20;100.00
12358;BME280;6243;51.244;6.774;2023-01-25T05:13:07;148806.53;;;5.33;100.00
12358;BME280;6243;51.244;6.774;2023-01-25T05:15:32;148785.06;;;5.25;100.00
12358;BME280;6243;51.244;6.774;2023-01-25T05:17:59;148817.94;;;5.38;100.00
12358;BME280;6243;51.244;6.774;2023-01-25T05:20:25;148835.66;;;5.45;100.00
12358;BME280;6243;51.244;6.774;2023-01-25T05:22:51;148822.97;;;5.40;100.00
12358;BME280;6243;51.244;6.774;2023-01-25T05:25:17;148840.72;;;5.47;100.00
12358;BME280;6243;51.244;6.774;2023-01-25T05:27:42;148800.22;;;5.31;100.00
12358;BME280;6243;51.244;6.774;2023-01-25T05:30:09;148841.97;;;5.47;100.00
12358;BME280;6243;51.244;6.774;2023-01-25T05:32:34;148831.81;;;5.43;100.00
12358;BME280;6243;51.244;6.774;2023-01-25T05:35:01;148849.53;;;5.50;100.00
12358;BME280;6243;51.244;6.774;2023-01-25T05:37:27;148835.66;;;5.45;100.00
12358;BME280;6243;51.244;6.774;2023-01-25T05:39:52;148772.38;;;5.20;100.00
12358;BME280;6243;51.244;6.774;2023-01-25T05:42:18;148816.66;;;5.37;100.00
12358;BME280;6243;51.244;6.774;2023-01-25T05:44:44;148838.16;;;5.46;100.00
12358;BME280;6243;51.244;6.774;2023-01-25T05:47:11;148819.22;;;5.38;100.00
12358;BME280;6243;51.244;6.774;2023-01-25T05:49:37;148844.47;;;5.48;100.00
12358;BME280;6243;51.244;6.774;2023-01-25T05:52:04;148824.25;;;5.40;100.00
12358;BME280;6243;51.244;6.774;2023-01-25T05:54:29;148804.00;;;5.32;100.00
12358;BME280;6243;51.244;6.774;2023-01-25T05:56:55;148810.31;;;5.35;100.00
12358;BME280;6243;51.244;6.774;2023-01-25T05:59:21;148831.81;;;5.43;100.00
12358;BME280;6243;51.244;6.774;2023-01-25T06:01:47;148816.66;;;5.37;100.00
12358;BME280;6243;51.244;6.774;2023-01-25T06:04:13;148850.81;;;5.51;100.00
12358;BME280;6243;51.244;6.774;2023-01-25T06:06:39;148810.31;;;5.35;100.00
12358;BME280;6243;51.244;6.774;2023-01-25T06:09:06;148796.44;;;5.29;100.00
12358;BME280;6243;51.244;6.774;2023-01-25T06:11:32;148798.94;;;5.30;100.00
12358;BME280;6243;51.244;6.774;2023-01-25T06:13:57;148809.06;;;5.34;100.00
12358;BME280;6243;51.244;6.774;2023-01-25T06:16:23;148782.50;;;5.24;100.00
12358;BME280;6243;51.244;6.774;2023-01-25T06:18:48;148805.28;;;5.33;100.00
12358;BME280;6243;51.244;6.774;2023-01-25T06:21:14;148821.72;;;5.39;100.00
12358;BME280;6243;51.244;6.774;2023-01-25T06:23:39;148828.03;;;5.42;100.00
12358;BME280;6243;51.244;6.774;2023-01-25T06:26:09;148841.97;;;5.47;100.00
12358;BME280;6243;51.244;6.774;2023-01-25T06:28:36;148848.25;;;5.50;100.00
12358;BME280;6243;51.244;6.774;2023-01-25T06:31:04;148847.03;;;5.49;100.00
12358;BME280;6243;51.244;6.774;2023-01-25T06:33:29;148860.94;;;5.55;100.00
12358;BME280;6243;51.244;6.774;2023-01-25T06:35:58;148849.53;;;5.50;100.00
12358;BME280;6243;51.244;6.774;2023-01-25T06:38:24;148854.59;;;5.52;100.00
12358;BME280;6243;51.244;6.774;2023-01-25T06:40:49;148805.28;;;5.33;100.00
12358;BME280;6243;51.244;6.774;2023-01-25T06:43:17;148805.28;;;5.33;100.00
12358;BME280;6243;51.244;6.774;2023-01-25T06:45:42;148811.59;;;5.35;100.00
12358;BME280;6243;51.244;6.774;2023-01-25T06:48:08;148830.59;;;5.43;100.00
12358;BME280;6243;51.244;6.774;2023-01-25T06:50:33;148840.72;;;5.47;100.00
12358;BME280;6243;51.244;6.774;2023-01-25T06:52:59;148836.88;;;5.45;100.00
12358;BME280;6243;51.244;6.774;2023-01-25T06:55:24;148822.97;;;5.40;100.00
12358;BME280;6243;51.244;6.774;2023-01-25T06:57:50;148848.25;;;5.50;100.00
12358;BME280;6243;51.244;6.774;2023-01-25T07:00:18;148869.81;;;5.58;100.00
12358;BME280;6243;51.244;6.774;2023-01-25T07:02:43;148903.97;;;5.72;100.00
12358;BME280;6243;51.244;6.774;2023-01-25T07:05:09;148865.97;;;5.57;100.00
12358;BME280;6243;51.244;6.774;2023-01-25T07:07:34;148871.09;;;5.59;100.00
12358;BME280;6243;51.244;6.774;2023-01-25T07:10:00;148898.94;;;5.70;100.00
12358;BME280;6243;51.244;6.774;2023-01-25T07:12:27;148888.78;;;5.66;100.00
12358;BME280;6243;51.244;6.774;2023-01-25T07:14:53;148858.44;;;5.54;100.00
12358;BME280;6243;51.244;6.774;2023-01-25T07:17:20;148826.75;;;5.41;100.00
12358;BME280;6243;51.244;6.774;2023-01-25T07:19:45;148877.38;;;5.61;100.00
12358;BME280;6243;51.244;6.774;2023-01-25T07:22:11;148821.72;;;5.39;100.00
12358;BME280;6243;51.244;6.774;2023-01-25T07:24:36;148897.66;;;5.69;100.00
12358;BME280;6243;51.244;6.774;2023-01-25T07:27:02;148850.81;;;5.51;100.00
12358;BME280;6243;51.244;6.774;2023-01-25T07:29:27;148857.16;;;5.53;100.00
12358;BME280;6243;51.244;6.774;2023-01-25T07:31:53;148834.38;;;5.44;100.00
12358;BME280;6243;51.244;6.774;2023-01-25T07:34:20;148825.50;;;5.41;100.00
12358;BME280;6243;51.244;6.774;2023-01-25T07:36:45;148821.72;;;5.39;100.00
12358;BME280;6243;51.244;6.774;2023-01-25T07:39:12;148833.09;;;5.44;100.00
12358;BME280;6243;51.244;6.774;2023-01-25T07:41:38;148830.59;;;5.43;100.00
12358;BME280;6243;51.244;6.774;2023-01-25T07:44:04;148836.88;;;5.45;100.00
12358;BME280;6243;51.244;6.774;2023-01-25T07:46:29;148804.00;;;5.32;100.00
12358;BME280;6243;51.244;6.774;2023-01-25T07:48:55;148802.72;;;5.32;100.00
12358;BME280;6243;51.244;6.774;2023-01-25T07:51:22;148820.44;;;5.39;100.00
12358;BME280;6243;51.244;6.774;2023-01-25T07:53:49;148790.09;;;5.27;100.00
12358;BME280;6243;51.244;6.774;2023-01-25T07:56:15;148821.72;;;5.39;100.00
12358;BME280;6243;51.244;6.774;2023-01-25T07:58:41;148810.31;;;5.35;100.00
12358;BME280;6243;51.244;6.774;2023-01-25T08:01:07;148887.53;;;5.65;100.00
12358;BME280;6243;51.244;6.774;2023-01-25T08:03:33;148892.59;;;5.67;100.00
12358;BME280;6243;51.244;6.774;2023-01-25T08:05:58;148895.09;;;5.68;100.00
12358;BME280;6243;51.244;6.774;2023-01-25T08:08:25;148888.78;;;5.66;100.00
12358;BME280;6243;51.244;6.774;2023-01-25T08:10:52;148852.09;;;5.51;100.00
12358;BME280;6243;51.244;6.774;2023-01-25T08:13:17;148878.66;;;5.62;100.00
12358;BME280;6243;51.244;6.774;2023-01-25T08:15:43;148830.59;;;5.43;100.00
12358;BME280;6243;51.244;6.774;2023-01-25T08:18:09;148876.16;;;5.61;100.00
12358;BME280;6243;51.244;6.774;2023-01-25T08:20:34;148876.16;;;5.61;100.00
12358;BME280;6243;51.244;6.774;2023-01-25T08:23:00;148873.59;;;5.60;100.00
12358;BME280;6243;51.244;6.774;2023-01-25T08:25:27;148865.97;;;5.57;100.00
12358;BME280;6243;51.244;6.774;2023-01-25T08:27:52;148886.25;;;5.65;100.00
12358;BME280;6243;51.244;6.774;2023-01-25T08:30:18;148881.19;;;5.63;100.00
12358;BME280;6243;51.244;6.774;2023-01-25T08:32:43;148840.72;;;5.47;100.00
12358;BME280;6243;51.244;6.774;2023-01-25T08:35:09;148869.81;;;5.58;100.00
12358;BME280;6243;51.244;6.774;2023-01-25T08:37:34;148858.44;;;5.54;100.00
12358;BME280;6243;51.244;6.774;2023-01-25T08:40:00;148916.66;;;5.77;100.00
12358;BME280;6243;51.244;6.774;2023-01-25T08:42:27;148841.97;;;5.47;100.00
12358;BME280;6243;51.244;6.774;2023-01-25T08:44:52;148830.59;;;5.43;100.00
12358;BME280;6243;51.244;6.774;2023-01-25T08:47:18;148796.44;;;5.29;100.00
12358;BME280;6243;51.244;6.774;2023-01-25T08:49:43;148764.78;;;5.17;100.00
12358;BME280;6243;51.244;6.774;2023-01-25T08:52:09;148795.16;;;5.29;100.00
12358;BME280;6243;51.244;6.774;2023-01-25T08:54:34;148776.16;;;5.21;100.00
12358;BME280;6243;51.244;6.774;2023-01-25T08:57:00;148716.69;;;4.97;100.00
12358;BME280;6243;51.244;6.774;2023-01-25T08:59:27;148599.13;;;4.51;100.00
12358;BME280;6243;51.244;6.774;2023-01-25T09:01:53;148506.81;;;4.14;100.00
12358;BME280;6243;51.244;6.774;2023-01-25T09:04:18;148444.91;;;3.89;100.00
12358;BME280;6243;51.244;6.774;2023-01-25T09:06:44;148577.63;;;4.42;100.00
12358;BME280;6243;51.244;6.774;2023-01-25T09:09:10;148666.13;;;4.77;100.00
12358;BME280;6243;51.244;6.774;2023-01-25T09:11:36;148704.09;;;4.92;100.00
12358;BME280;6243;51.244;6.774;2023-01-25T09:14:02;148752.13;;;5.12;100.00
12358;BME280;6243;51.244;6.774;2023-01-25T09:16:29;148776.16;;;5.21;100.00
12358;BME280;6243;51.244;6.774;2023-01-25T09:18:55;148843.22;;;5.48;100.00
12358;BME280;6243;51.244;6.774;2023-01-25T09:21:21;148888.78;;;5.66;100.00
12358;BME280;6243;51.244;6.774;2023-01-25T09:23:47;148877.38;;;5.61;100.00
12358;BME280;6243;51.244;6.774;2023-01-25T09:26:13;148921.72;;;5.79;100.00
12358;BME280;6243;51.244;6.774;2023-01-25T09:28:39;148919.16;;;5.78;100.00
12358;BME280;6243;51.244;6.774;2023-01-25T09:31:05;148892.59;;;5.67;100.00
12358;BME280;6243;51.244;6.774;2023-01-25T09:33:34;148841.97;;;5.47;100.00
12358;BME280;6243;51.244;6.774;2023-01-25T09:36:00;148873.59;;;5.60;100.00
12358;BME280;6243;51.244;6.774;2023-01-25T09:38:26;148874.88;;;5.60;100.00
12358;BME280;6243;51.244;6.774;2023-01-25T09:41:01;148834.38;;;5.44;100.00
12358;BME280;6243;51.244;6.774;2023-01-25T09:43:40;148826.75;;;5.41;100.00
12358;BME280;6243;51.244;6.774;2023-01-25T09:46:16;148862.22;;;5.55;100.00
12358;BME280;6243;51.244;6.774;2023-01-25T09:48:55;148862.22;;;5.55;100.00
12358;BME280;6243;51.244;6.774;2023-01-25T09:51:32;148853.38;;;5.52;100.00
12358;BME280;6243;51.244;6.774;2023-01-25T09:54:09;148817.94;;;5.38;100.00
12358;BME280;6243;51.244;6.774;2023-01-25T09:56:35;148805.28;;;5.33;100.00
12358;BME280;6243;51.244;6.774;2023-01-25T09:59:04;148833.09;;;5.44;100.00
12358;BME280;6243;51.244;6.774;2023-01-25T10:01:36;148828.03;;;5.42;100.00
12358;BME280;6243;51.244;6.774;2023-01-25T10:04:12;148806.53;;;5.33;100.00
12358;BME280;6243;51.244;6.774;2023-01-25T10:06:42;148854.59;;;5.52;100.00
12358;BME280;6243;51.244;6.774;2023-01-25T10:09:26;148788.81;;;5.26;100.00
12358;BME280;6243;51.244;6.774;2023-01-25T10:11:54;148836.88;;;5.45;100.00
12358;BME280;6243;51.244;6.774;2023-01-25T10:14:20;148814.09;;;5.36;100.00
12358;BME280;6243;51.244;6.774;2023-01-25T10:17:05;148810.31;;;5.35;100.00
12358;BME280;6243;51.244;6.774;2023-01-25T10:19:43;148821.72;;;5.39;100.00
12358;BME280;6243;51.244;6.774;2023-01-25T10:22:13;148816.66;;;5.37;100.00
12358;BME280;6243;51.244;6.774;2023-01-25T10:24:51;148809.06;;;5.34;100.00
12358;BME280;6243;51.244;6.774;2023-01-25T10:27:25;148806.53;;;5.33;100.00
12358;BME280;6243;51.244;6.774;2023-01-25T10:29:56;148891.31;;;5.67;100.00
12358;BME280;6243;51.244;6.774;2023-01-25T10:32:25;148905.25;;;5.72;100.00
12358;BME280;6243;51.244;6.774;2023-01-25T10:34:55;148934.38;;;5.84;100.00
12358;BME280;6243;51.244;6.774;2023-01-25T10:37:25;148939.47;;;5.86;100.00
12358;BME280;6243;51.244;6.774;2023-01-25T10:39:56;148959.72;;;5.94;100.00
12358;BME280;6243;51.244;6.774;2023-01-25T10:42:25;148983.78;;;6.04;100.00
12358;BME280;6243;51.244;6.774;2023-01-25T10:44:51;148935.66;;;5.85;100.00
12358;BME280;6243;51.244;6.774;2023-01-25T10:47:22;148992.63;;;6.07;100.00
12358;BME280;6243;51.244;6.774;2023-01-25T10:49:50;148931.81;;;5.83;100.00
12358;BME280;6243;51.244;6.774;2023-01-25T10:52:20;148926.75;;;5.81;100.00
12358;BME280;6243;51.244;6.774;2023-01-25T10:54:46;148940.72;;;5.87;100.00
12358;BME280;6243;51.244;6.774;2023-01-25T10:57:14;148926.75;;;5.81;100.00
12358;BME280;6243;51.244;6.774;2023-01-25T10:59:43;148935.66;;;5.85;100.00
12358;BME280;6243;51.244;6.774;2023-01-25T11:02:42;148921.72;;;5.79;100.00
12358;BME280;6243;51.244;6.774;2023-01-25T11:05:24;148825.50;;;5.41;100.00
12358;BME280;6243;51.244;6.774;2023-01-25T11:07:51;148848.25;;;5.50;100.00
12358;BME280;6243;51.244;6.774;2023-01-25T11:10:27;148874.88;;;5.60;100.00
12358;BME280;6243;51.244;6.774;2023-01-25T11:13:16;148903.97;;;5.72;100.00
12358;BME280;6243;51.244;6.774;2023-01-25T11:15:44;148868.53;;;5.58;100.00
12358;BME280;6243;51.244;6.774;2023-01-25T11:18:12;148897.66;;;5.69;100.00
12358;BME280;6243;51.244;6.774;2023-01-25T11:20:40;148931.81;;;5.83;100.00
12358;BME280;6243;51.244;6.774;2023-01-25T11:23:20;148911.53;;;5.75;100.00
12358;BME280;6243;51.244;6.774;2023-01-25T11:25:46;148940.72;;;5.87;100.00
12358;BME280;6243;51.244;6.774;2023-01-25T11:28:17;148933.09;;;5.84;100.00
12358;BME280;6243;51.244;6.774;2023-01-25T11:30:43;148922.94;;;5.80;100.00
12358;BME280;6243;51.244;6.774;2023-01-25T11:33:10;148950.88;;;5.91;100.00
12358;BME280;6243;51.244;6.774;2023-01-25T11:35:36;148936.94;;;5.85;100.00
12358;BME280;6243;51.244;6.774;2023-01-25T11:38:13;148914.09;;;5.76;100.00
12358;BME280;6243;51.244;6.774;2023-01-25T11:40:43;148929.28;;;5.82;100.00
12358;BME280;6243;51.244;6.774;2023-01-25T11:43:28;148939.47;;;5.86;100.00
12358;BME280;6243;51.244;6.774;2023-01-25T11:46:19;148943.25;;;5.88;100.00
12358;BME280;6243;51.244;6.774;2023-01-25T11:49:04;148925.50;;;5.81;100.00
12358;BME280;6243;51.244;6.774;2023-01-25T11:51:38;148887.53;;;5.65;100.00
12358;BME280;6243;51.244;6.774;2023-01-25T11:54:41;148886.25;;;5.65;100.00
12358;BME280;6243;51.244;6.774;2023-01-25T12:00:23;148876.16;;;5.61;100.00
12358;BME280;6243;51.244;6.774;2023-01-25T12:05:54;148911.53;;;5.75;100.00
12358;BME280;6243;51.244;6.774;2023-01-25T12:08:43;148876.16;;;5.61;100.00
12358;BME280;6243;51.244;6.774;2023-01-25T12:11:21;148873.59;;;5.60;100.00
12358;BME280;6243;51.244;6.774;2023-01-25T12:14:01;148903.97;;;5.72;100.00
12358;BME280;6243;51.244;6.774;2023-01-25T12:16:41;148878.66;;;5.62;100.00
12358;BME280;6243;51.244;6.774;2023-01-25T12:22:23;148867.25;;;5.57;100.00
12358;BME280;6243;51.244;6.774;2023-01-25T12:24:58;148914.09;;;5.76;100.00
12358;BME280;6243;51.244;6.774;2023-01-25T12:27:37;148903.97;;;5.72;100.00
12358;BME280;6243;51.244;6.774;2023-01-25T12:30:13;148922.94;;;5.80;100.00
12358;BME280;6243;51.244;6.774;2023-01-25T12:32:44;148907.75;;;5.73;100.00
12358;BME280;6243;51.244;6.774;2023-01-25T12:35:21;148916.66;;;5.77;100.00
12358;BME280;6243;51.244;6.774;2023-01-25T12:37:48;148845.75;;;5.49;100.00
12358;BME280;6243;51.244;6.774;2023-01-25T12:40:20;148800.22;;;5.31;100.00
12358;BME280;6243;51.244;6.774;2023-01-25T12:42:55;148749.63;;;5.11;100.00
12358;BME280;6243;51.244;6.774;2023-01-25T12:45:24;148881.19;;;5.63;100.00
12358;BME280;6243;51.244;6.774;2023-01-25T12:47:54;148924.22;;;5.80;100.00
12358;BME280;6243;51.244;6.774;2023-01-25T12:50:24;148978.72;;;6.02;100.00
12358;BME280;6243;51.244;6.774;2023-01-25T12:52:55;148936.94;;;5.85;100.00
12358;BME280;6243;51.244;6.774;2023-01-25T12:55:23;148896.38;;;5.69;100.00
12358;BME280;6243;51.244;6.774;2023-01-25T12:57:55;148961.00;;;5.95;100.00
12358;BME280;6243;51.244;6.774;2023-01-25T13:00:28;148985.06;;;6.04;100.00
12358;BME280;6243;51.244;6.774;2023-01-25T13:03:06;148969.84;;;5.98;100.00
12358;BME280;6243;51.244;6.774;2023-01-25T13:05:39;149005.28;;;6.12;100.00
12358;BME280;6243;51.244;6.774;2023-01-25T13:08:18;148891.31;;;5.67;100.00
12358;BME280;6243;51.244;6.774;2023-01-25T13:10:48;148638.31;;;4.66;100.00
12358;BME280;6243;51.244;6.774;2023-01-25T13:13:20;148704.09;;;4.92;100.00
12358;BME280;6243;51.244;6.774;2023-01-25T13:15:46;148729.34;;;5.02;100.00